createdAt,value
2023-05-11T00:00:33.501Z,16.04
2023-05-11T00:02:59.952Z,16.04
2023-05-11T00:05:26.555Z,15.78
2023-05-11T00:07:52.931Z,15.84
2023-05-11T00:10:19.553Z,15.99
2023-05-11T00:12:46.060Z,16.08
2023-05-11T00:15:12.477Z,15.73
2023-05-11T00:17:38.871Z,15.80
2023-05-11T00:20:06.212Z,15.51
2023-05-11T00:22:32.573Z,15.62
2023-05-11T00:24:58.958Z,15.57
2023-05-11T00:27:25.560Z,15.81
2023-05-11T00:29:52.076Z,15.50
2023-05-11T00:32:18.467Z,15.57
2023-05-11T00:34:44.888Z,15.53
2023-05-11T00:37:11.316Z,15.51
2023-05-11T00:39:40.409Z,15.61
2023-05-11T00:42:06.954Z,15.31
2023-05-11T00:44:33.346Z,15.24
2023-05-11T00:46:59.915Z,15.29
2023-05-11T00:49:26.792Z,15.28
2023-05-11T00:51:53.337Z,15.38
2023-05-11T00:54:20.395Z,15.21
2023-05-11T00:56:48.279Z,15.36
2023-05-11T00:59:14.742Z,15.24
2023-05-11T01:01:41.256Z,15.29
2023-05-11T01:04:07.875Z,15.26
2023-05-11T01:06:47.525Z,15.13
2023-05-11T01:09:25.264Z,15.02
2023-05-11T01:12:00.284Z,14.89
2023-05-11T01:14:48.436Z,14.95
2023-05-11T01:17:25.583Z,14.83
2023-05-11T01:19:57.591Z,14.57
2023-05-11T01:22:36.574Z,14.78
2023-05-11T01:25:21.838Z,14.76
2023-05-11T01:28:25.942Z,14.83
2023-05-11T01:31:01.781Z,14.69
2023-05-11T01:33:32.776Z,14.66
2023-05-11T01:36:05.345Z,14.69
2023-05-11T01:38:38.630Z,14.84
2023-05-11T01:41:12.135Z,14.90
2023-05-11T01:43:40.846Z,14.76
2023-05-11T01:46:10.284Z,14.63
2023-05-11T01:48:40.727Z,14.71
2023-05-11T01:51:08.981Z,14.54
2023-05-11T01:53:37.649Z,14.66
2023-05-11T01:56:05.941Z,14.41
2023-05-11T01:58:35.879Z,14.50
2023-05-11T02:01:03.601Z,14.48
2023-05-11T02:03:32.822Z,14.50
2023-05-11T02:06:01.042Z,14.37
2023-05-11T02:08:31.166Z,14.53
2023-05-11T02:10:59.210Z,14.48
2023-05-11T02:13:27.418Z,14.57
2023-05-11T02:15:57.033Z,14.65
2023-05-11T02:18:24.431Z,14.62
2023-05-11T02:20:52.176Z,14.63
2023-05-11T02:23:20.502Z,14.33
2023-05-11T02:25:47.592Z,14.36
2023-05-11T02:28:13.970Z,14.36
2023-05-11T02:30:45.885Z,14.43
2023-05-11T02:33:17.765Z,14.29
2023-05-11T02:35:44.831Z,14.35
2023-05-11T02:38:12.463Z,14.32
2023-05-11T02:40:45.756Z,14.26
2023-05-11T02:43:15.612Z,14.24
2023-05-11T02:45:44.505Z,14.17
2023-05-11T02:48:21.390Z,14.17
2023-05-11T02:50:49.941Z,14.06
2023-05-11T02:53:17.540Z,14.02
2023-05-11T02:55:44.036Z,13.94
2023-05-11T02:58:11.176Z,13.83
2023-05-11T03:00:39.499Z,13.97
2023-05-11T03:03:06.281Z,13.80
2023-05-11T03:05:32.764Z,13.85
2023-05-11T03:07:59.960Z,13.90
2023-05-11T03:10:27.774Z,13.72
2023-05-11T03:12:54.408Z,13.79
2023-05-11T03:15:21.714Z,13.68
2023-05-11T03:17:50.122Z,13.76
2023-05-11T03:20:17.587Z,13.76
2023-05-11T03:22:45.758Z,13.81
2023-05-11T03:25:12.547Z,13.79
2023-05-11T03:27:41.912Z,13.66
2023-05-11T03:30:09.613Z,13.60
2023-05-11T03:32:36.514Z,13.67
2023-05-11T03:35:03.123Z,13.76
2023-05-11T03:37:31.214Z,13.67
2023-05-11T03:39:59.293Z,13.75
2023-05-11T03:42:27.193Z,13.73
2023-05-11T03:44:58.368Z,13.74
2023-05-11T03:47:26.228Z,13.67
2023-05-11T03:49:53.434Z,13.56
2023-05-11T03:52:21.168Z,13.74
2023-05-11T03:54:47.664Z,13.61
2023-05-11T03:57:14.968Z,13.76
2023-05-11T03:59:41.335Z,13.58
2023-05-11T04:02:08.367Z,13.58
2023-05-11T04:04:34.905Z,13.72
2023-05-11T04:07:01.392Z,13.59
2023-05-11T04:09:27.736Z,13.76
2023-05-11T04:11:54.120Z,13.67
2023-05-11T04:14:23.142Z,13.59
2023-05-11T04:16:49.497Z,13.67
2023-05-11T04:19:16.608Z,13.77
2023-05-11T04:21:42.977Z,13.78
2023-05-11T04:24:09.358Z,13.95
2023-05-11T04:26:35.712Z,14.05
2023-05-11T04:29:02.095Z,13.92
2023-05-11T04:31:30.280Z,13.97
2023-05-11T04:33:56.723Z,13.87
2023-05-11T04:36:23.077Z,13.97
2023-05-11T04:38:49.442Z,13.87
2023-05-11T04:41:15.924Z,13.86
2023-05-11T04:43:42.294Z,13.99
2023-05-11T04:46:08.633Z,14.02
2023-05-11T04:48:34.985Z,14.11
2023-05-11T04:51:04.103Z,14.15
2023-05-11T04:53:30.831Z,14.16
2023-05-11T04:55:57.322Z,14.38
2023-05-11T04:58:23.705Z,14.14
2023-05-11T05:00:50.353Z,14.21
2023-05-11T05:03:16.805Z,14.21
2023-05-11T05:05:43.179Z,14.11
2023-05-11T05:08:09.563Z,14.24
2023-05-11T05:10:35.911Z,14.26
2023-05-11T05:13:02.284Z,14.36
2023-05-11T05:15:28.683Z,14.46
2023-05-11T05:17:55.112Z,14.32
2023-05-11T05:20:21.516Z,14.50
2023-05-11T05:22:47.871Z,14.55
2023-05-11T05:25:14.246Z,14.43
2023-05-11T05:27:40.617Z,14.55
2023-05-11T05:30:07.501Z,14.74
2023-05-11T05:32:33.888Z,14.80
2023-05-11T05:35:00.342Z,14.69
2023-05-11T05:37:26.705Z,14.70
2023-05-11T05:39:53.072Z,14.71
2023-05-11T05:42:19.422Z,14.83
2023-05-11T05:44:45.910Z,14.93
2023-05-11T05:47:12.302Z,14.96
2023-05-11T05:49:38.673Z,15.07
2023-05-11T05:52:05.012Z,14.99
2023-05-11T05:54:31.370Z,15.02
2023-05-11T05:56:57.737Z,15.07
2023-05-11T05:59:24.392Z,14.97
2023-05-11T06:01:51.374Z,15.27
2023-05-11T06:04:17.830Z,15.27
2023-05-11T06:06:44.481Z,15.30
2023-05-11T06:09:10.864Z,15.28
2023-05-11T06:11:38.133Z,15.45
2023-05-11T06:14:04.501Z,15.43
2023-05-11T06:16:31.115Z,15.47
2023-05-11T06:18:57.613Z,15.75
2023-05-11T06:21:24.025Z,15.67
2023-05-11T06:23:50.378Z,15.90
2023-05-11T06:26:17.053Z,16.06
2023-05-11T06:28:43.411Z,16.14
2023-05-11T06:31:09.899Z,16.39
2023-05-11T06:33:36.361Z,16.25
2023-05-11T06:36:06.824Z,16.39
2023-05-11T06:38:34.240Z,16.43
2023-05-11T06:41:00.657Z,16.55
2023-05-11T06:43:27.025Z,16.60
2023-05-11T06:45:53.476Z,16.78
2023-05-11T06:48:20.091Z,16.74
2023-05-11T06:50:46.514Z,16.72
2023-05-11T06:53:13.520Z,16.89
2023-05-11T06:55:39.904Z,16.87
2023-05-11T06:58:06.295Z,16.82
2023-05-11T07:00:32.658Z,16.92
2023-05-11T07:02:59.094Z,17.05
2023-05-11T07:05:25.499Z,17.12
2023-05-11T07:07:51.972Z,17.28
2023-05-11T07:10:18.611Z,17.30
2023-05-11T07:12:45.322Z,17.33
2023-05-11T07:15:12.399Z,17.33
2023-05-11T07:17:38.798Z,17.44
2023-05-11T07:20:05.872Z,17.50
2023-05-11T07:22:32.272Z,17.60
2023-05-11T07:25:00.456Z,17.68
2023-05-11T07:27:26.821Z,17.68
2023-05-11T07:29:53.178Z,17.74
2023-05-11T07:32:19.535Z,17.79
2023-05-11T07:34:45.895Z,17.92
2023-05-11T07:37:12.284Z,17.92
2023-05-11T07:39:38.675Z,17.94
2023-05-11T07:42:05.052Z,17.94
2023-05-11T07:44:31.431Z,18.12
2023-05-11T07:46:58.544Z,18.09
2023-05-11T07:49:31.538Z,18.17
2023-05-11T07:52:09.132Z,18.22
2023-05-11T07:54:35.534Z,18.40
2023-05-11T07:57:02.108Z,18.41
2023-05-11T07:59:28.468Z,18.41
2023-05-11T08:01:54.894Z,18.51
2023-05-11T08:04:21.261Z,18.55
2023-05-11T08:06:47.636Z,18.60
2023-05-11T08:09:14.939Z,18.84
2023-05-11T08:11:41.828Z,18.85
2023-05-11T08:14:08.208Z,19.03
2023-05-11T08:16:36.999Z,18.94
2023-05-11T08:19:03.586Z,19.16
2023-05-11T08:21:30.536Z,19.12
2023-05-11T08:23:56.920Z,19.14
2023-05-11T08:26:23.260Z,19.29
2023-05-11T08:28:49.628Z,19.26
2023-05-11T08:31:18.459Z,19.44
2023-05-11T08:33:45.165Z,19.65
2023-05-11T08:36:13.502Z,19.66
2023-05-11T08:38:40.333Z,19.66
2023-05-11T08:41:07.673Z,19.81
2023-05-11T08:43:39.682Z,19.89
2023-05-11T08:46:07.852Z,19.92
2023-05-11T08:48:34.379Z,20.10
2023-05-11T08:51:02.120Z,20.33
2023-05-11T08:53:28.829Z,20.35
2023-05-11T08:55:58.147Z,20.40
2023-05-11T08:58:24.792Z,20.34
2023-05-11T09:00:52.005Z,20.52
2023-05-11T09:03:19.512Z,20.81
2023-05-11T09:05:47.282Z,20.89
2023-05-11T09:08:14.704Z,20.83
2023-05-11T09:10:42.367Z,20.92
2023-05-11T09:13:08.780Z,20.82
2023-05-11T09:15:38.121Z,20.97
2023-05-11T09:18:05.485Z,21.10
2023-05-11T09:20:33.411Z,21.01
2023-05-11T09:23:00.431Z,21.37
2023-05-11T09:25:31.741Z,21.45
2023-05-11T09:27:59.515Z,21.42
2023-05-11T09:30:25.983Z,21.56
2023-05-11T09:32:54.604Z,21.71
2023-05-11T09:35:29.747Z,21.87
2023-05-11T09:38:12.138Z,21.89
2023-05-11T09:40:43.223Z,22.27
2023-05-11T09:43:20.876Z,21.82
2023-05-11T09:45:48.794Z,21.77
2023-05-11T09:48:21.084Z,21.75
2023-05-11T09:50:48.721Z,21.59
2023-05-11T09:53:15.154Z,21.85
2023-05-11T09:55:55.403Z,21.96
2023-05-11T09:58:22.094Z,22.17
2023-05-11T10:00:52.563Z,22.27
2023-05-11T10:03:20.163Z,22.05
2023-05-11T10:05:57.979Z,21.89
2023-05-11T10:08:34.205Z,22.18
2023-05-11T10:11:02.577Z,21.94
2023-05-11T10:13:32.110Z,22.33
2023-05-11T10:15:59.232Z,22.85
2023-05-11T10:18:26.453Z,22.73
2023-05-11T10:20:53.403Z,22.88
2023-05-11T10:23:20.976Z,22.89
2023-05-11T10:25:48.017Z,22.97
2023-05-11T10:28:15.066Z,22.94
2023-05-11T10:30:41.942Z,22.93
2023-05-11T10:33:09.538Z,22.82
2023-05-11T10:35:38.378Z,22.86
2023-05-11T10:38:06.617Z,22.82
2023-05-11T10:40:38.454Z,23.07
2023-05-11T10:43:08.447Z,23.19
2023-05-11T10:45:59.877Z,23.22
2023-05-11T10:48:54.038Z,23.63
2023-05-11T10:51:37.976Z,23.77
2023-05-11T10:54:18.528Z,23.64
2023-05-11T10:57:00.306Z,23.81
2023-05-11T11:00:09.760Z,23.47
2023-05-11T11:02:37.487Z,23.46
2023-05-11T11:05:10.587Z,23.61
2023-05-11T11:08:07.111Z,23.68
2023-05-11T11:10:35.924Z,23.79
2023-05-11T11:13:07.939Z,24.07
2023-05-11T11:15:52.797Z,24.39
2023-05-11T11:18:27.314Z,24.56
2023-05-11T11:20:55.825Z,24.82
2023-05-11T11:23:41.167Z,24.90
2023-05-11T11:26:09.952Z,24.13
2023-05-11T11:28:54.371Z,23.76
2023-05-11T11:31:27.960Z,24.03
2023-05-11T11:33:58.779Z,24.33
2023-05-11T11:36:58.491Z,24.49
2023-05-11T11:39:30.398Z,24.45
2023-05-11T11:42:04.804Z,24.68
2023-05-11T11:44:31.390Z,24.11
2023-05-11T11:47:14.268Z,24.37
2023-05-11T11:49:43.212Z,24.11
2023-05-11T11:52:31.190Z,23.85
2023-05-11T11:55:02.339Z,23.69
2023-05-11T11:57:34.734Z,23.94
2023-05-11T12:00:07.212Z,23.32
2023-05-11T12:02:34.914Z,23.54
2023-05-11T12:05:09.548Z,23.31
2023-05-11T12:07:38.843Z,23.83
2023-05-11T12:10:05.658Z,23.42
2023-05-11T12:12:32.341Z,23.26
2023-05-11T12:14:59.880Z,23.31
2023-05-11T12:17:29.389Z,23.46
2023-05-11T12:20:12.035Z,23.02
2023-05-11T12:22:38.392Z,23.01
2023-05-11T12:25:08.817Z,23.37
2023-05-11T12:27:35.187Z,23.30
2023-05-11T12:30:01.822Z,23.21
2023-05-11T12:32:29.221Z,23.62
2023-05-11T12:35:04.484Z,24.13
2023-05-11T12:37:31.502Z,24.08
2023-05-11T12:39:58.614Z,25.03
2023-05-11T12:42:25.313Z,25.76
2023-05-11T12:44:52.252Z,26.22
2023-05-11T12:47:18.828Z,26.55
2023-05-11T12:49:45.306Z,26.34
2023-05-11T12:52:13.486Z,26.19
2023-05-11T12:54:43.388Z,25.95
2023-05-11T12:57:24.383Z,25.33
2023-05-11T13:00:05.987Z,25.51
2023-05-11T13:02:32.443Z,25.03
2023-05-11T13:04:59.020Z,25.48
2023-05-11T13:07:27.532Z,25.29
2023-05-11T13:09:58.383Z,25.52
2023-05-11T13:12:25.720Z,25.76
2023-05-11T13:15:08.983Z,26.37
2023-05-11T13:17:37.414Z,25.92
2023-05-11T13:20:34.634Z,26.16
2023-05-11T13:23:08.279Z,25.92
2023-05-11T13:25:53.055Z,25.26
2023-05-11T13:28:22.082Z,26.24
2023-05-11T13:30:48.732Z,26.35
2023-05-11T13:33:15.384Z,26.75
2023-05-11T13:35:43.227Z,26.71
2023-05-11T13:38:10.658Z,26.05
2023-05-11T13:40:37.896Z,27.19
2023-05-11T13:43:04.587Z,27.47
2023-05-11T13:45:30.993Z,26.98
2023-05-11T13:47:57.413Z,26.50
2023-05-11T13:50:25.132Z,26.30
2023-05-11T13:52:54.522Z,26.09
2023-05-11T13:55:21.608Z,26.33
2023-05-11T13:57:48.269Z,26.13
2023-05-11T14:00:15.443Z,25.79
2023-05-11T14:02:41.894Z,25.26
2023-05-11T14:05:08.926Z,25.72
2023-05-11T14:07:46.268Z,25.95
2023-05-11T14:10:14.845Z,26.19
2023-05-11T14:12:41.385Z,26.24
2023-05-11T14:15:08.468Z,26.56
2023-05-11T14:17:34.929Z,25.51
2023-05-11T14:20:01.467Z,25.79
2023-05-11T14:22:29.098Z,25.24
2023-05-11T14:24:56.076Z,25.38
2023-05-11T14:27:23.357Z,25.17
2023-05-11T14:29:52.035Z,24.80
2023-05-11T14:32:19.410Z,25.07
2023-05-11T14:34:48.981Z,25.75
2023-05-11T14:37:15.741Z,25.81
2023-05-11T14:39:47.772Z,27.23
2023-05-11T14:42:14.408Z,26.10
2023-05-11T14:44:41.666Z,25.41
2023-05-11T14:47:08.726Z,26.91
2023-05-11T14:49:35.188Z,27.56
2023-05-11T14:52:01.902Z,27.15
2023-05-11T14:54:28.288Z,28.43
2023-05-11T14:56:56.179Z,26.65
2023-05-11T14:59:26.086Z,31.57
2023-05-11T15:01:52.476Z,28.37
2023-05-11T15:04:19.251Z,28.35
2023-05-11T15:06:46.139Z,33.43
2023-05-11T15:09:12.586Z,29.50
2023-05-11T15:11:39.017Z,29.06
2023-05-11T15:14:06.880Z,28.10
2023-05-11T15:16:33.309Z,26.31
2023-05-11T15:18:59.937Z,26.17
2023-05-11T15:21:27.459Z,26.28
2023-05-11T15:23:53.846Z,26.63
2023-05-11T15:26:21.444Z,26.00
2023-05-11T15:28:47.869Z,26.04
2023-05-11T15:31:14.678Z,32.39
2023-05-11T15:33:41.420Z,26.60
2023-05-11T15:36:13.192Z,25.88
2023-05-11T15:38:40.250Z,25.56
2023-05-11T15:41:07.680Z,25.24
2023-05-11T15:43:34.087Z,25.79
2023-05-11T15:46:00.549Z,25.80
2023-05-11T15:48:26.949Z,25.96
2023-05-11T15:50:53.337Z,26.23
2023-05-11T15:53:19.777Z,26.60
2023-05-11T15:55:50.515Z,25.99
2023-05-11T15:58:18.005Z,25.56
2023-05-11T16:00:44.502Z,25.17
2023-05-11T16:03:11.007Z,24.60
2023-05-11T16:05:38.357Z,24.51
2023-05-11T16:08:06.355Z,24.24
2023-05-11T16:10:33.006Z,24.00
2023-05-11T16:12:59.469Z,24.74
2023-05-11T16:15:26.080Z,24.48
2023-05-11T16:17:52.581Z,24.13
2023-05-11T16:20:19.186Z,23.47
2023-05-11T16:22:47.482Z,23.07
2023-05-11T16:25:13.964Z,22.75
2023-05-11T16:27:40.490Z,23.15
2023-05-11T16:30:18.276Z,22.97
2023-05-11T16:32:50.729Z,22.83
2023-05-11T16:35:17.141Z,22.75
2023-05-11T16:37:43.516Z,22.87
2023-05-11T16:40:09.966Z,22.96
2023-05-11T16:42:36.353Z,22.80
2023-05-11T16:45:02.705Z,22.56
2023-05-11T16:47:29.094Z,22.95
2023-05-11T16:49:55.541Z,23.44
2023-05-11T16:52:21.914Z,25.52
2023-05-11T16:54:48.298Z,28.03
2023-05-11T16:57:14.659Z,28.47
2023-05-11T16:59:41.265Z,29.19
2023-05-11T17:02:08.233Z,29.43
2023-05-11T17:04:34.683Z,28.41
2023-05-11T17:07:01.140Z,26.04
2023-05-11T17:09:27.973Z,24.56
2023-05-11T17:11:55.206Z,23.72
2023-05-11T17:14:21.583Z,23.51
2023-05-11T17:16:48.069Z,23.46
2023-05-11T17:19:14.557Z,23.30
2023-05-11T17:21:41.289Z,23.17
2023-05-11T17:24:08.105Z,23.32
2023-05-11T17:26:46.286Z,23.30
2023-05-11T17:29:15.450Z,23.04
2023-05-11T17:31:42.146Z,22.93
2023-05-11T17:34:09.273Z,23.15
2023-05-11T17:36:36.122Z,23.86
2023-05-11T17:39:02.589Z,23.65
2023-05-11T17:41:28.983Z,23.54
2023-05-11T17:43:55.399Z,23.77
2023-05-11T17:46:21.885Z,24.21
2023-05-11T17:48:48.409Z,23.20
2023-05-11T17:51:14.803Z,22.45
2023-05-11T17:53:41.855Z,22.56
2023-05-11T17:56:09.925Z,22.25
2023-05-11T17:58:36.336Z,22.42
2023-05-11T18:01:15.614Z,21.94
2023-05-11T18:03:42.360Z,22.06
2023-05-11T18:06:09.005Z,21.83
2023-05-11T18:08:36.667Z,21.55
2023-05-11T18:11:03.244Z,21.53
2023-05-11T18:13:30.930Z,21.37
2023-05-11T18:15:58.450Z,21.12
2023-05-11T18:18:25.151Z,21.08
2023-05-11T18:20:51.660Z,21.22
2023-05-11T18:23:18.559Z,21.03
2023-05-11T18:25:44.967Z,21.20
2023-05-11T18:28:11.408Z,20.91
2023-05-11T18:30:42.009Z,20.97
2023-05-11T18:33:08.445Z,20.86
2023-05-11T18:35:35.136Z,20.83
2023-05-11T18:38:04.120Z,20.84
2023-05-11T18:40:30.510Z,20.75
2023-05-11T18:42:56.903Z,20.77
2023-05-11T18:45:23.274Z,20.70
2023-05-11T18:47:50.268Z,20.70
2023-05-11T18:50:16.763Z,20.61
2023-05-11T18:52:43.186Z,20.62
2023-05-11T18:55:10.136Z,20.64
2023-05-11T18:57:38.039Z,20.56
2023-05-11T19:00:05.440Z,20.48
2023-05-11T19:02:33.065Z,20.42
2023-05-11T19:04:59.517Z,20.48
2023-05-11T19:07:25.947Z,20.38
2023-05-11T19:09:52.617Z,20.38
2023-05-11T19:12:19.689Z,20.32
2023-05-11T19:14:47.482Z,20.35
2023-05-11T19:17:14.066Z,20.03
2023-05-11T19:19:40.534Z,20.09
2023-05-11T19:22:07.746Z,20.20
2023-05-11T19:24:35.683Z,20.18
2023-05-11T19:27:07.453Z,19.93
2023-05-11T19:29:35.231Z,19.93
2023-05-11T19:32:02.007Z,20.02
2023-05-11T19:34:28.502Z,19.90
2023-05-11T19:36:54.876Z,20.02
2023-05-11T19:39:21.298Z,20.00
2023-05-11T19:41:47.674Z,20.13
2023-05-11T19:44:14.045Z,19.80
2023-05-11T19:46:46.230Z,19.90
2023-05-11T19:49:14.893Z,19.87
2023-05-11T19:51:41.252Z,19.86
2023-05-11T19:54:07.794Z,19.63
2023-05-11T19:56:34.175Z,19.49
2023-05-11T19:59:01.222Z,19.45
2023-05-11T20:01:27.665Z,19.48
2023-05-11T20:03:54.222Z,19.39
2023-05-11T20:06:20.735Z,19.41
2023-05-11T20:08:48.832Z,19.32
2023-05-11T20:11:15.398Z,19.37
2023-05-11T20:13:42.396Z,19.42
2023-05-11T20:16:08.876Z,19.24
2023-05-11T20:18:35.333Z,19.34
2023-05-11T20:21:01.759Z,19.41
2023-05-11T20:23:28.164Z,19.24
2023-05-11T20:25:55.069Z,19.27
2023-05-11T20:28:22.097Z,19.11
2023-05-11T20:30:48.714Z,19.12
2023-05-11T20:35:44.427Z,19.19
2023-05-11T20:38:10.804Z,19.18
2023-05-11T20:40:37.182Z,19.12
2023-05-11T20:43:03.646Z,19.15
2023-05-11T20:45:30.037Z,19.07
2023-05-11T20:47:56.477Z,19.11
2023-05-11T20:50:23.428Z,19.09
2023-05-11T20:52:49.964Z,19.19
2023-05-11T20:55:17.721Z,19.11
2023-05-11T20:57:44.233Z,19.15
2023-05-11T21:00:11.432Z,19.16
2023-05-11T21:02:37.918Z,19.03
2023-05-11T21:05:04.467Z,18.87
2023-05-11T21:07:30.932Z,19.09
2023-05-11T21:09:57.376Z,19.11
2023-05-11T21:12:23.772Z,18.90
2023-05-11T21:14:50.199Z,18.89
2023-05-11T21:17:16.744Z,18.81
2023-05-11T21:19:43.226Z,18.94
2023-05-11T21:22:09.636Z,18.87
2023-05-11T21:24:37.588Z,18.69
2023-05-11T21:27:04.201Z,18.79
2023-05-11T21:29:30.627Z,18.73
2023-05-11T21:31:56.993Z,18.65
2023-05-11T21:34:23.368Z,18.67
2023-05-11T21:36:49.777Z,18.44
2023-05-11T21:39:16.154Z,18.45
2023-05-11T21:41:42.532Z,18.44
2023-05-11T21:44:08.894Z,18.39
2023-05-11T21:46:35.428Z,18.51
2023-05-11T21:49:01.881Z,18.48
2023-05-11T21:51:28.274Z,18.49
2023-05-11T21:53:57.561Z,18.46
2023-05-11T21:56:25.026Z,18.40
2023-05-11T21:58:51.414Z,18.48
2023-05-11T22:01:17.805Z,18.52
2023-05-11T22:03:44.352Z,18.42
2023-05-11T22:06:10.903Z,18.47
2023-05-11T22:08:37.366Z,18.36
2023-05-11T22:11:04.100Z,18.24
2023-05-11T22:13:30.476Z,18.33
2023-05-11T22:15:56.891Z,18.12
2023-05-11T22:18:23.409Z,18.17
2023-05-11T22:20:49.828Z,18.06
2023-05-11T22:23:16.211Z,18.22
2023-05-11T22:25:42.600Z,18.17
2023-05-11T22:28:08.999Z,18.22
2023-05-11T22:30:37.362Z,18.09
2023-05-11T22:33:03.906Z,17.90
2023-05-11T22:35:30.406Z,17.93
2023-05-11T22:37:56.790Z,17.95
2023-05-11T22:40:23.196Z,18.06
2023-05-11T22:42:49.564Z,18.03
2023-05-11T22:45:16.430Z,17.91
2023-05-11T22:47:42.888Z,17.93
2023-05-11T22:50:11.878Z,18.01
2023-05-11T22:52:38.608Z,17.91
2023-05-11T22:55:05.519Z,17.77
2023-05-11T22:57:31.888Z,17.89
2023-05-11T22:59:58.248Z,17.77
2023-05-11T23:02:24.647Z,17.75
2023-05-11T23:04:52.408Z,17.75
2023-05-11T23:07:19.445Z,17.59
2023-05-11T23:09:45.835Z,17.55
2023-05-11T23:12:12.756Z,17.35
2023-05-11T23:14:39.150Z,17.37
2023-05-11T23:17:05.533Z,17.24
2023-05-11T23:19:32.081Z,17.32
2023-05-11T23:21:58.607Z,17.26
2023-05-11T23:24:24.997Z,17.20
2023-05-11T23:26:51.361Z,17.12
2023-05-11T23:29:17.755Z,17.16
2023-05-11T23:31:44.192Z,17.03
2023-05-11T23:34:10.577Z,17.00
2023-05-11T23:36:36.951Z,17.02
2023-05-11T23:39:03.351Z,16.93
2023-05-11T23:41:29.720Z,16.93
2023-05-11T23:43:56.076Z,16.98
2023-05-11T23:46:22.436Z,16.92
2023-05-11T23:48:48.809Z,16.94
2023-05-11T23:51:16.464Z,16.81
2023-05-11T23:53:42.924Z,16.75
2023-05-11T23:56:09.320Z,16.70
2023-05-11T23:58:35.729Z,16.71
